sensor_id;sensor_type;location;lat;lon;timestamp;P1;durP1;ratioP1;P2;durP2;ratioP2
76894;SDS011;65855;42.030;13.078;2023-09-12T00:01:59;12.35;;;7.60;;
76894;SDS011;65855;42.030;13.078;2023-09-12T00:04:25;13.13;;;6.97;;
76894;SDS011;65855;42.030;13.078;2023-09-12T00:06:50;11.52;;;7.38;;
76894;SDS011;65855;42.030;13.078;2023-09-12T00:09:15;11.50;;;7.13;;
76894;SDS011;65855;42.030;13.078;2023-09-12T00:11:40;12.37;;;7.20;;
76894;SDS011;65855;42.030;13.078;2023-09-12T00:14:08;11.20;;;7.60;;
76894;SDS011;65855;42.030;13.078;2023-09-12T00:16:33;13.05;;;8.18;;
76894;SDS011;65855;42.030;13.078;2023-09-12T00:18:58;12.98;;;8.35;;
76894;SDS011;65855;42.030;13.078;2023-09-12T00:21:24;15.70;;;7.70;;
76894;SDS011;65855;42.030;13.078;2023-09-12T00:23:49;14.80;;;8.23;;
76894;SDS011;65855;42.030;13.078;2023-09-12T00:26:14;13.52;;;8.13;;
76894;SDS011;65855;42.030;13.078;2023-09-12T00:28:40;12.17;;;8.10;;
76894;SDS011;65855;42.030;13.078;2023-09-12T00:31:05;12.82;;;7.80;;
76894;SDS011;65855;42.030;13.078;2023-09-12T00:33:30;12.70;;;7.78;;
76894;SDS011;65855;42.030;13.078;2023-09-12T00:35:56;13.50;;;7.63;;
76894;SDS011;65855;42.030;13.078;2023-09-12T00:38:21;12.20;;;7.60;;
76894;SDS011;65855;42.030;13.078;2023-09-12T00:40:46;12.17;;;7.73;;
76894;SDS011;65855;42.030;13.078;2023-09-12T00:43:12;11.38;;;7.55;;
76894;SDS011;65855;42.030;13.078;2023-09-12T00:45:37;12.63;;;7.68;;
76894;SDS011;65855;42.030;13.078;2023-09-12T00:48:03;12.45;;;7.82;;
76894;SDS011;65855;42.030;13.078;2023-09-12T00:50:29;13.43;;;7.72;;
76894;SDS011;65855;42.030;13.078;2023-09-12T00:52:55;12.88;;;7.70;;
76894;SDS011;65855;42.030;13.078;2023-09-12T00:55:21;12.52;;;8.15;;
76894;SDS011;65855;42.030;13.078;2023-09-12T00:57:46;13.90;;;8.07;;
76894;SDS011;65855;42.030;13.078;2023-09-12T01:00:12;11.45;;;8.40;;
76894;SDS011;65855;42.030;13.078;2023-09-12T01:02:39;14.52;;;8.35;;
76894;SDS011;65855;42.030;13.078;2023-09-12T01:05:05;15.63;;;8.18;;
76894;SDS011;65855;42.030;13.078;2023-09-12T01:07:31;11.57;;;7.47;;
76894;SDS011;65855;42.030;13.078;2023-09-12T01:09:56;12.30;;;7.03;;
76894;SDS011;65855;42.030;13.078;2023-09-12T01:12:21;12.32;;;8.38;;
76894;SDS011;65855;42.030;13.078;2023-09-12T01:14:47;11.95;;;7.90;;
76894;SDS011;65855;42.030;13.078;2023-09-12T01:17:12;14.47;;;7.73;;
76894;SDS011;65855;42.030;13.078;2023-09-12T01:19:37;12.75;;;7.82;;
76894;SDS011;65855;42.030;13.078;2023-09-12T01:27:25;14.65;;;8.52;;
76894;SDS011;65855;42.030;13.078;2023-09-12T01:29:53;13.02;;;8.57;;
76894;SDS011;65855;42.030;13.078;2023-09-12T01:32:21;12.38;;;8.63;;
76894;SDS011;65855;42.030;13.078;2023-09-12T01:34:46;10.32;;;6.05;;
76894;SDS011;65855;42.030;13.078;2023-09-12T01:37:11;12.32;;;7.78;;
76894;SDS011;65855;42.030;13.078;2023-09-12T01:39:37;13.53;;;8.80;;
76894;SDS011;65855;42.030;13.078;2023-09-12T01:42:02;12.70;;;7.83;;
76894;SDS011;65855;42.030;13.078;2023-09-12T01:44:28;13.85;;;8.32;;
76894;SDS011;65855;42.030;13.078;2023-09-12T01:46:54;14.07;;;8.45;;
76894;SDS011;65855;42.030;13.078;2023-09-12T01:49:22;14.70;;;9.15;;
76894;SDS011;65855;42.030;13.078;2023-09-12T01:51:48;13.23;;;9.15;;
76894;SDS011;65855;42.030;13.078;2023-09-12T01:54:14;11.73;;;7.40;;
76894;SDS011;65855;42.030;13.078;2023-09-12T01:56:39;12.38;;;8.15;;
76894;SDS011;65855;42.030;13.078;2023-09-12T01:59:05;11.88;;;7.53;;
76894;SDS011;65855;42.030;13.078;2023-09-12T02:01:31;12.90;;;8.02;;
76894;SDS011;65855;42.030;13.078;2023-09-12T02:03:56;11.80;;;7.63;;
76894;SDS011;65855;42.030;13.078;2023-09-12T02:06:22;11.50;;;8.00;;
76894;SDS011;65855;42.030;13.078;2023-09-12T02:08:47;14.13;;;7.50;;
76894;SDS011;65855;42.030;13.078;2023-09-12T02:11:13;11.97;;;7.23;;
76894;SDS011;65855;42.030;13.078;2023-09-12T02:13:38;14.20;;;8.57;;
76894;SDS011;65855;42.030;13.078;2023-09-12T02:16:03;13.50;;;7.60;;
76894;SDS011;65855;42.030;13.078;2023-09-12T02:18:29;14.75;;;8.18;;
76894;SDS011;65855;42.030;13.078;2023-09-12T02:20:54;13.70;;;7.63;;
76894;SDS011;65855;42.030;13.078;2023-09-12T02:23:19;15.87;;;8.83;;
76894;SDS011;65855;42.030;13.078;2023-09-12T02:25:44;14.23;;;9.20;;
76894;SDS011;65855;42.030;13.078;2023-09-12T02:28:10;12.70;;;6.00;;
76894;SDS011;65855;42.030;13.078;2023-09-12T02:30:37;15.33;;;9.27;;
76894;SDS011;65855;42.030;13.078;2023-09-12T02:33:03;13.90;;;8.23;;
76894;SDS011;65855;42.030;13.078;2023-09-12T02:35:28;13.30;;;8.75;;
76894;SDS011;65855;42.030;13.078;2023-09-12T02:37:54;15.40;;;8.75;;
76894;SDS011;65855;42.030;13.078;2023-09-12T02:40:19;14.33;;;7.77;;
76894;SDS011;65855;42.030;13.078;2023-09-12T02:42:44;12.85;;;9.15;;
76894;SDS011;65855;42.030;13.078;2023-09-12T02:45:09;14.90;;;9.20;;
76894;SDS011;65855;42.030;13.078;2023-09-12T02:47:35;13.73;;;8.25;;
76894;SDS011;65855;42.030;13.078;2023-09-12T02:50:00;12.70;;;8.20;;
76894;SDS011;65855;42.030;13.078;2023-09-12T02:52:25;13.37;;;8.67;;
76894;SDS011;65855;42.030;13.078;2023-09-12T02:54:51;11.03;;;7.53;;
76894;SDS011;65855;42.030;13.078;2023-09-12T02:57:16;12.17;;;7.37;;
76894;SDS011;65855;42.030;13.078;2023-09-12T02:59:41;12.93;;;8.60;;
76894;SDS011;65855;42.030;13.078;2023-09-12T03:02:07;13.93;;;8.53;;
76894;SDS011;65855;42.030;13.078;2023-09-12T03:04:32;14.03;;;9.13;;
76894;SDS011;65855;42.030;13.078;2023-09-12T03:06:58;16.13;;;8.82;;
76894;SDS011;65855;42.030;13.078;2023-09-12T03:09:23;14.97;;;9.27;;
76894;SDS011;65855;42.030;13.078;2023-09-12T03:11:49;11.55;;;8.38;;
76894;SDS011;65855;42.030;13.078;2023-09-12T03:14:14;12.65;;;8.52;;
76894;SDS011;65855;42.030;13.078;2023-09-12T03:16:40;14.07;;;7.67;;
76894;SDS011;65855;42.030;13.078;2023-09-12T03:19:05;12.90;;;8.27;;
76894;SDS011;65855;42.030;13.078;2023-09-12T03:21:30;13.57;;;8.07;;
76894;SDS011;65855;42.030;13.078;2023-09-12T03:23:56;13.50;;;7.60;;
76894;SDS011;65855;42.030;13.078;2023-09-12T03:26:21;13.43;;;8.77;;
76894;SDS011;65855;42.030;13.078;2023-09-12T03:28:48;13.65;;;8.73;;
76894;SDS011;65855;42.030;13.078;2023-09-12T03:31:13;12.77;;;7.70;;
76894;SDS011;65855;42.030;13.078;2023-09-12T03:33:39;13.38;;;8.55;;
76894;SDS011;65855;42.030;13.078;2023-09-12T03:36:05;12.50;;;7.63;;
76894;SDS011;65855;42.030;13.078;2023-09-12T03:38:31;12.57;;;7.18;;
76894;SDS011;65855;42.030;13.078;2023-09-12T03:40:56;12.27;;;8.40;;
76894;SDS011;65855;42.030;13.078;2023-09-12T03:43:21;14.27;;;8.00;;
76894;SDS011;65855;42.030;13.078;2023-09-12T03:45:47;13.13;;;7.93;;
76894;SDS011;65855;42.030;13.078;2023-09-12T03:48:12;13.70;;;7.77;;
76894;SDS011;65855;42.030;13.078;2023-09-12T03:50:37;11.57;;;7.07;;
76894;SDS011;65855;42.030;13.078;2023-09-12T03:53:02;13.07;;;9.33;;
76894;SDS011;65855;42.030;13.078;2023-09-12T03:55:28;12.32;;;7.03;;
76894;SDS011;65855;42.030;13.078;2023-09-12T03:57:53;11.47;;;7.73;;
76894;SDS011;65855;42.030;13.078;2023-09-12T04:00:18;12.80;;;8.30;;
76894;SDS011;65855;42.030;13.078;2023-09-12T04:02:44;10.80;;;6.87;;
76894;SDS011;65855;42.030;13.078;2023-09-12T04:05:09;13.30;;;7.23;;
76894;SDS011;65855;42.030;13.078;2023-09-12T04:07:34;10.20;;;6.28;;
76894;SDS011;65855;42.030;13.078;2023-09-12T04:10:00;11.75;;;6.03;;
76894;SDS011;65855;42.030;13.078;2023-09-12T04:12:25;11.00;;;6.10;;
76894;SDS011;65855;42.030;13.078;2023-09-12T04:14:50;12.43;;;6.50;;
76894;SDS011;65855;42.030;13.078;2023-09-12T04:17:20;10.20;;;6.43;;
76894;SDS011;65855;42.030;13.078;2023-09-12T04:19:45;10.63;;;5.97;;
76894;SDS011;65855;42.030;13.078;2023-09-12T04:22:10;9.03;;;6.27;;
76894;SDS011;65855;42.030;13.078;2023-09-12T04:24:35;12.50;;;6.80;;
76894;SDS011;65855;42.030;13.078;2023-09-12T04:27:01;11.57;;;7.93;;
76894;SDS011;65855;42.030;13.078;2023-09-12T04:29:26;11.18;;;7.18;;
76894;SDS011;65855;42.030;13.078;2023-09-12T04:31:52;13.70;;;7.72;;
76894;SDS011;65855;42.030;13.078;2023-09-12T04:34:23;9.43;;;6.40;;
76894;SDS011;65855;42.030;13.078;2023-09-12T04:36:49;12.88;;;7.53;;
76894;SDS011;65855;42.030;13.078;2023-09-12T04:39:14;11.03;;;6.93;;
76894;SDS011;65855;42.030;13.078;2023-09-12T04:41:39;12.57;;;8.02;;
76894;SDS011;65855;42.030;13.078;2023-09-12T04:44:05;12.10;;;7.27;;
76894;SDS011;65855;42.030;13.078;2023-09-12T04:46:30;14.50;;;8.00;;
76894;SDS011;65855;42.030;13.078;2023-09-12T04:48:55;15.93;;;8.00;;
76894;SDS011;65855;42.030;13.078;2023-09-12T04:51:20;9.27;;;6.23;;
76894;SDS011;65855;42.030;13.078;2023-09-12T04:53:46;12.07;;;8.00;;
76894;SDS011;65855;42.030;13.078;2023-09-12T04:56:16;13.98;;;7.40;;
76894;SDS011;65855;42.030;13.078;2023-09-12T04:58:41;11.98;;;8.25;;
76894;SDS011;65855;42.030;13.078;2023-09-12T05:01:07;14.57;;;7.57;;
76894;SDS011;65855;42.030;13.078;2023-09-12T05:03:32;11.87;;;7.30;;
76894;SDS011;65855;42.030;13.078;2023-09-12T05:05:58;11.30;;;6.78;;
76894;SDS011;65855;42.030;13.078;2023-09-12T05:08:23;13.52;;;7.05;;
76894;SDS011;65855;42.030;13.078;2023-09-12T05:10:49;12.65;;;7.13;;
76894;SDS011;65855;42.030;13.078;2023-09-12T05:13:15;11.75;;;7.22;;
76894;SDS011;65855;42.030;13.078;2023-09-12T05:15:40;11.90;;;7.03;;
76894;SDS011;65855;42.030;13.078;2023-09-12T05:18:06;12.88;;;7.22;;
76894;SDS011;65855;42.030;13.078;2023-09-12T05:20:31;11.27;;;7.25;;
76894;SDS011;65855;42.030;13.078;2023-09-12T05:22:57;12.13;;;8.25;;
76894;SDS011;65855;42.030;13.078;2023-09-12T05:25:22;12.40;;;6.77;;
76894;SDS011;65855;42.030;13.078;2023-09-12T05:27:47;12.47;;;7.20;;
76894;SDS011;65855;42.030;13.078;2023-09-12T05:30:13;11.30;;;6.73;;
76894;SDS011;65855;42.030;13.078;2023-09-12T05:32:38;12.35;;;6.85;;
76894;SDS011;65855;42.030;13.078;2023-09-12T05:35:03;11.20;;;6.23;;
76894;SDS011;65855;42.030;13.078;2023-09-12T05:37:29;11.40;;;7.03;;
76894;SDS011;65855;42.030;13.078;2023-09-12T05:39:54;14.13;;;6.43;;
76894;SDS011;65855;42.030;13.078;2023-09-12T05:42:19;12.43;;;6.97;;
76894;SDS011;65855;42.030;13.078;2023-09-12T05:44:49;14.68;;;7.05;;
76894;SDS011;65855;42.030;13.078;2023-09-12T05:47:15;10.57;;;5.38;;
76894;SDS011;65855;42.030;13.078;2023-09-12T05:49:40;11.88;;;6.63;;
76894;SDS011;65855;42.030;13.078;2023-09-12T05:52:05;11.00;;;5.47;;
76894;SDS011;65855;42.030;13.078;2023-09-12T05:54:31;10.47;;;6.57;;
76894;SDS011;65855;42.030;13.078;2023-09-12T05:56:56;11.73;;;6.15;;
76894;SDS011;65855;42.030;13.078;2023-09-12T05:59:21;9.48;;;5.30;;
76894;SDS011;65855;42.030;13.078;2023-09-12T06:01:46;10.30;;;5.13;;
76894;SDS011;65855;42.030;13.078;2023-09-12T06:04:12;9.43;;;5.95;;
76894;SDS011;65855;42.030;13.078;2023-09-12T06:06:37;11.60;;;4.63;;
76894;SDS011;65855;42.030;13.078;2023-09-12T06:09:04;10.20;;;6.05;;
76894;SDS011;65855;42.030;13.078;2023-09-12T06:11:29;9.47;;;6.00;;
76894;SDS011;65855;42.030;13.078;2023-09-12T06:13:54;11.47;;;9.00;;
76894;SDS011;65855;42.030;13.078;2023-09-12T06:16:19;11.02;;;6.82;;
76894;SDS011;65855;42.030;13.078;2023-09-12T06:18:45;11.40;;;6.15;;
76894;SDS011;65855;42.030;13.078;2023-09-12T06:21:10;10.67;;;6.13;;
76894;SDS011;65855;42.030;13.078;2023-09-12T06:23:36;9.90;;;6.43;;
76894;SDS011;65855;42.030;13.078;2023-09-12T06:26:01;11.13;;;6.32;;
76894;SDS011;65855;42.030;13.078;2023-09-12T06:28:27;10.13;;;6.28;;
76894;SDS011;65855;42.030;13.078;2023-09-12T06:30:53;9.20;;;5.40;;
76894;SDS011;65855;42.030;13.078;2023-09-12T06:33:18;10.73;;;5.60;;
76894;SDS011;65855;42.030;13.078;2023-09-12T06:35:44;9.33;;;5.47;;
76894;SDS011;65855;42.030;13.078;2023-09-12T06:38:12;11.15;;;5.68;;
76894;SDS011;65855;42.030;13.078;2023-09-12T06:40:37;8.63;;;4.90;;
76894;SDS011;65855;42.030;13.078;2023-09-12T06:43:03;11.13;;;5.53;;
76894;SDS011;65855;42.030;13.078;2023-09-12T06:45:28;9.90;;;5.95;;
76894;SDS011;65855;42.030;13.078;2023-09-12T06:47:55;9.32;;;4.82;;
76894;SDS011;65855;42.030;13.078;2023-09-12T06:50:20;9.43;;;5.40;;
76894;SDS011;65855;42.030;13.078;2023-09-12T06:52:46;8.23;;;4.43;;
76894;SDS011;65855;42.030;13.078;2023-09-12T06:55:11;24.90;;;6.50;;
76894;SDS011;65855;42.030;13.078;2023-09-12T06:57:36;9.07;;;5.03;;
76894;SDS011;65855;42.030;13.078;2023-09-12T07:00:02;9.23;;;4.43;;
76894;SDS011;65855;42.030;13.078;2023-09-12T07:04:57;8.65;;;4.70;;
76894;SDS011;65855;42.030;13.078;2023-09-12T07:07:23;8.10;;;5.28;;
76894;SDS011;65855;42.030;13.078;2023-09-12T07:09:49;8.73;;;4.23;;
76894;SDS011;65855;42.030;13.078;2023-09-12T07:12:14;7.77;;;4.47;;
76894;SDS011;65855;42.030;13.078;2023-09-12T07:14:39;10.37;;;4.50;;
76894;SDS011;65855;42.030;13.078;2023-09-12T07:17:05;8.97;;;4.83;;
76894;SDS011;65855;42.030;13.078;2023-09-12T07:19:31;7.45;;;4.53;;
76894;SDS011;65855;42.030;13.078;2023-09-12T07:21:56;8.77;;;4.17;;
76894;SDS011;65855;42.030;13.078;2023-09-12T07:24:24;9.00;;;4.35;;
76894;SDS011;65855;42.030;13.078;2023-09-12T07:26:49;10.30;;;4.72;;
76894;SDS011;65855;42.030;13.078;2023-09-12T07:29:15;10.63;;;5.53;;
76894;SDS011;65855;42.030;13.078;2023-09-12T07:31:40;9.13;;;5.00;;
76894;SDS011;65855;42.030;13.078;2023-09-12T07:34:05;9.40;;;5.18;;
76894;SDS011;65855;42.030;13.078;2023-09-12T07:36:31;8.85;;;4.55;;
76894;SDS011;65855;42.030;13.078;2023-09-12T07:38:56;8.27;;;4.80;;
76894;SDS011;65855;42.030;13.078;2023-09-12T07:41:21;8.48;;;4.50;;
76894;SDS011;65855;42.030;13.078;2023-09-12T07:43:46;8.17;;;4.43;;
76894;SDS011;65855;42.030;13.078;2023-09-12T07:46:12;8.80;;;4.68;;
76894;SDS011;65855;42.030;13.078;2023-09-12T07:48:37;8.60;;;3.83;;
76894;SDS011;65855;42.030;13.078;2023-09-12T07:51:10;9.20;;;4.27;;
76894;SDS011;65855;42.030;13.078;2023-09-12T07:53:36;7.80;;;4.72;;
76894;SDS011;65855;42.030;13.078;2023-09-12T07:56:01;8.93;;;4.97;;
76894;SDS011;65855;42.030;13.078;2023-09-12T07:58:26;8.77;;;4.70;;
76894;SDS011;65855;42.030;13.078;2023-09-12T08:00:52;9.57;;;4.80;;
76894;SDS011;65855;42.030;13.078;2023-09-12T08:03:17;9.47;;;4.63;;
76894;SDS011;65855;42.030;13.078;2023-09-12T08:05:42;9.27;;;4.70;;
76894;SDS011;65855;42.030;13.078;2023-09-12T08:08:08;10.38;;;4.93;;
76894;SDS011;65855;42.030;13.078;2023-09-12T08:10:33;8.68;;;4.55;;
76894;SDS011;65855;42.030;13.078;2023-09-12T08:12:58;7.73;;;3.83;;
76894;SDS011;65855;42.030;13.078;2023-09-12T08:15:24;7.78;;;3.92;;
76894;SDS011;65855;42.030;13.078;2023-09-12T08:17:49;9.25;;;5.03;;
76894;SDS011;65855;42.030;13.078;2023-09-12T08:20:17;8.52;;;4.43;;
76894;SDS011;65855;42.030;13.078;2023-09-12T08:22:42;9.45;;;4.72;;
76894;SDS011;65855;42.030;13.078;2023-09-12T08:25:08;7.93;;;4.47;;
76894;SDS011;65855;42.030;13.078;2023-09-12T08:27:33;8.80;;;4.72;;
76894;SDS011;65855;42.030;13.078;2023-09-12T08:29:58;8.03;;;4.47;;
76894;SDS011;65855;42.030;13.078;2023-09-12T08:32:24;7.57;;;4.07;;
76894;SDS011;65855;42.030;13.078;2023-09-12T08:34:49;8.20;;;4.60;;
76894;SDS011;65855;42.030;13.078;2023-09-12T08:37:14;11.33;;;5.10;;
76894;SDS011;65855;42.030;13.078;2023-09-12T08:39:40;8.47;;;4.33;;
76894;SDS011;65855;42.030;13.078;2023-09-12T08:42:08;7.97;;;4.57;;
76894;SDS011;65855;42.030;13.078;2023-09-12T08:44:36;7.82;;;4.88;;
76894;SDS011;65855;42.030;13.078;2023-09-12T08:47:01;11.52;;;5.20;;
76894;SDS011;65855;42.030;13.078;2023-09-12T08:49:27;8.13;;;4.32;;
76894;SDS011;65855;42.030;13.078;2023-09-12T08:51:53;9.27;;;4.70;;
76894;SDS011;65855;42.030;13.078;2023-09-12T08:54:19;9.30;;;4.75;;
76894;SDS011;65855;42.030;13.078;2023-09-12T08:56:44;8.32;;;4.82;;
76894;SDS011;65855;42.030;13.078;2023-09-12T08:59:10;8.80;;;4.25;;
76894;SDS011;65855;42.030;13.078;2023-09-12T09:01:35;7.90;;;4.28;;
76894;SDS011;65855;42.030;13.078;2023-09-12T09:04:02;8.25;;;4.43;;
76894;SDS011;65855;42.030;13.078;2023-09-12T09:06:28;11.50;;;4.80;;
76894;SDS011;65855;42.030;13.078;2023-09-12T09:08:55;10.80;;;4.72;;
76894;SDS011;65855;42.030;13.078;2023-09-12T09:11:20;9.05;;;4.53;;
76894;SDS011;65855;42.030;13.078;2023-09-12T09:13:46;9.77;;;4.55;;
76894;SDS011;65855;42.030;13.078;2023-09-12T09:21:26;9.63;;;4.85;;
76894;SDS011;65855;42.030;13.078;2023-09-12T09:23:54;10.82;;;4.78;;
76894;SDS011;65855;42.030;13.078;2023-09-12T09:26:20;8.88;;;5.00;;
76894;SDS011;65855;42.030;13.078;2023-09-12T09:28:45;10.55;;;5.15;;
76894;SDS011;65855;42.030;13.078;2023-09-12T09:31:14;10.35;;;5.05;;
76894;SDS011;65855;42.030;13.078;2023-09-12T09:33:40;11.90;;;4.22;;
76894;SDS011;65855;42.030;13.078;2023-09-12T09:36:06;9.10;;;3.38;;
76894;SDS011;65855;42.030;13.078;2023-09-12T09:38:33;9.20;;;3.75;;
76894;SDS011;65855;42.030;13.078;2023-09-12T09:40:59;7.00;;;3.45;;
76894;SDS011;65855;42.030;13.078;2023-09-12T09:43:24;7.05;;;4.18;;
76894;SDS011;65855;42.030;13.078;2023-09-12T09:45:50;8.07;;;3.67;;
76894;SDS011;65855;42.030;13.078;2023-09-12T09:48:22;6.85;;;3.55;;
76894;SDS011;65855;42.030;13.078;2023-09-12T09:50:47;8.50;;;3.72;;
76894;SDS011;65855;42.030;13.078;2023-09-12T09:53:13;7.15;;;3.25;;
76894;SDS011;65855;42.030;13.078;2023-09-12T09:55:38;6.90;;;3.30;;
76894;SDS011;65855;42.030;13.078;2023-09-12T09:58:07;6.37;;;3.77;;
76894;SDS011;65855;42.030;13.078;2023-09-12T10:00:36;6.38;;;2.90;;
76894;SDS011;65855;42.030;13.078;2023-09-12T10:03:04;6.88;;;3.40;;
76894;SDS011;65855;42.030;13.078;2023-09-12T10:05:29;6.30;;;2.95;;
76894;SDS011;65855;42.030;13.078;2023-09-12T10:07:56;5.60;;;2.60;;
76894;SDS011;65855;42.030;13.078;2023-09-12T10:10:22;7.28;;;3.13;;
76894;SDS011;65855;42.030;13.078;2023-09-12T10:12:49;8.00;;;3.10;;
76894;SDS011;65855;42.030;13.078;2023-09-12T10:15:17;7.18;;;2.80;;
76894;SDS011;65855;42.030;13.078;2023-09-12T10:17:43;6.95;;;3.25;;
76894;SDS011;65855;42.030;13.078;2023-09-12T10:20:19;6.93;;;3.63;;
76894;SDS011;65855;42.030;13.078;2023-09-12T10:25:40;6.47;;;3.75;;
76894;SDS011;65855;42.030;13.078;2023-09-12T10:28:06;7.55;;;4.03;;
76894;SDS011;65855;42.030;13.078;2023-09-12T10:30:32;8.35;;;4.60;;
76894;SDS011;65855;42.030;13.078;2023-09-12T10:32:57;7.70;;;4.38;;
76894;SDS011;65855;42.030;13.078;2023-09-12T10:35:24;8.35;;;4.40;;
76894;SDS011;65855;42.030;13.078;2023-09-12T10:37:49;9.65;;;4.47;;
76894;SDS011;65855;42.030;13.078;2023-09-12T10:40:16;11.07;;;4.15;;
76894;SDS011;65855;42.030;13.078;2023-09-12T10:42:41;7.78;;;4.82;;
76894;SDS011;65855;42.030;13.078;2023-09-12T10:45:07;7.85;;;4.40;;
76894;SDS011;65855;42.030;13.078;2023-09-12T10:47:34;8.32;;;4.05;;
76894;SDS011;65855;42.030;13.078;2023-09-12T10:50:00;11.07;;;4.97;;
76894;SDS011;65855;42.030;13.078;2023-09-12T10:52:27;7.75;;;4.00;;
76894;SDS011;65855;42.030;13.078;2023-09-12T10:54:52;7.97;;;3.55;;
76894;SDS011;65855;42.030;13.078;2023-09-12T10:57:18;9.43;;;3.95;;
76894;SDS011;65855;42.030;13.078;2023-09-12T11:00:29;6.97;;;3.60;;
76894;SDS011;65855;42.030;13.078;2023-09-12T11:02:33;8.40;;;4.55;;
76894;SDS011;65855;42.030;13.078;2023-09-12T11:04:58;8.00;;;3.75;;
76894;SDS011;65855;42.030;13.078;2023-09-12T11:07:43;9.63;;;4.90;;
76894;SDS011;65855;42.030;13.078;2023-09-12T11:12:41;8.35;;;4.88;;
76894;SDS011;65855;42.030;13.078;2023-09-12T11:15:06;7.63;;;4.10;;
76894;SDS011;65855;42.030;13.078;2023-09-12T11:17:38;9.48;;;4.38;;
76894;SDS011;65855;42.030;13.078;2023-09-12T11:20:04;8.93;;;5.03;;
76894;SDS011;65855;42.030;13.078;2023-09-12T11:22:35;8.23;;;4.60;;
76894;SDS011;65855;42.030;13.078;2023-09-12T11:25:01;8.40;;;4.28;;
76894;SDS011;65855;42.030;13.078;2023-09-12T11:27:44;7.60;;;4.18;;
76894;SDS011;65855;42.030;13.078;2023-09-12T11:30:09;9.27;;;4.72;;
76894;SDS011;65855;42.030;13.078;2023-09-12T11:32:35;9.15;;;4.05;;
76894;SDS011;65855;42.030;13.078;2023-09-12T11:35:05;7.30;;;3.72;;
76894;SDS011;65855;42.030;13.078;2023-09-12T11:37:30;8.45;;;4.32;;
76894;SDS011;65855;42.030;13.078;2023-09-12T11:39:58;6.45;;;3.72;;
76894;SDS011;65855;42.030;13.078;2023-09-12T11:42:23;7.72;;;3.90;;
76894;SDS011;65855;42.030;13.078;2023-09-12T11:44:50;7.43;;;3.97;;
76894;SDS011;65855;42.030;13.078;2023-09-12T11:47:16;7.32;;;3.47;;
76894;SDS011;65855;42.030;13.078;2023-09-12T11:49:41;7.75;;;4.40;;
76894;SDS011;65855;42.030;13.078;2023-09-12T11:52:10;6.57;;;3.80;;
76894;SDS011;65855;42.030;13.078;2023-09-12T11:54:37;6.93;;;3.70;;
76894;SDS011;65855;42.030;13.078;2023-09-12T11:57:02;7.53;;;3.83;;
76894;SDS011;65855;42.030;13.078;2023-09-12T11:59:28;7.45;;;3.85;;
76894;SDS011;65855;42.030;13.078;2023-09-12T12:01:54;6.20;;;3.30;;
76894;SDS011;65855;42.030;13.078;2023-09-12T12:04:23;8.25;;;3.55;;
76894;SDS011;65855;42.030;13.078;2023-09-12T12:06:50;7.00;;;3.83;;
76894;SDS011;65855;42.030;13.078;2023-09-12T12:09:16;7.63;;;3.42;;
76894;SDS011;65855;42.030;13.078;2023-09-12T12:11:43;6.72;;;3.08;;
76894;SDS011;65855;42.030;13.078;2023-09-12T12:14:17;6.70;;;3.40;;
76894;SDS011;65855;42.030;13.078;2023-09-12T12:16:45;6.82;;;3.38;;
76894;SDS011;65855;42.030;13.078;2023-09-12T12:19:10;6.20;;;2.83;;
76894;SDS011;65855;42.030;13.078;2023-09-12T12:21:37;6.88;;;3.53;;
76894;SDS011;65855;42.030;13.078;2023-09-12T12:24:03;8.30;;;4.22;;
76894;SDS011;65855;42.030;13.078;2023-09-12T12:26:29;8.05;;;3.83;;
76894;SDS011;65855;42.030;13.078;2023-09-12T12:28:55;7.00;;;3.58;;
76894;SDS011;65855;42.030;13.078;2023-09-12T12:31:20;6.63;;;3.58;;
76894;SDS011;65855;42.030;13.078;2023-09-12T12:33:50;7.97;;;3.85;;
76894;SDS011;65855;42.030;13.078;2023-09-12T12:36:15;7.18;;;3.50;;
76894;SDS011;65855;42.030;13.078;2023-09-12T12:38:40;7.60;;;3.80;;
76894;SDS011;65855;42.030;13.078;2023-09-12T12:41:08;6.95;;;3.40;;
76894;SDS011;65855;42.030;13.078;2023-09-12T12:43:34;7.60;;;3.63;;
76894;SDS011;65855;42.030;13.078;2023-09-12T12:45:59;6.80;;;3.20;;
76894;SDS011;65855;42.030;13.078;2023-09-12T12:48:31;6.83;;;3.50;;
76894;SDS011;65855;42.030;13.078;2023-09-12T12:50:59;7.38;;;3.10;;
76894;SDS011;65855;42.030;13.078;2023-09-12T12:53:40;6.50;;;3.72;;
76894;SDS011;65855;42.030;13.078;2023-09-12T12:56:06;6.97;;;3.67;;
76894;SDS011;65855;42.030;13.078;2023-09-12T12:58:31;9.00;;;3.38;;
76894;SDS011;65855;42.030;13.078;2023-09-12T13:00:56;7.05;;;3.10;;
76894;SDS011;65855;42.030;13.078;2023-09-12T13:03:22;6.50;;;3.20;;
76894;SDS011;65855;42.030;13.078;2023-09-12T13:05:47;12.40;;;3.93;;
76894;SDS011;65855;42.030;13.078;2023-09-12T13:08:12;7.05;;;3.38;;
76894;SDS011;65855;42.030;13.078;2023-09-12T13:10:37;5.93;;;3.30;;
76894;SDS011;65855;42.030;13.078;2023-09-12T13:13:03;7.30;;;3.23;;
76894;SDS011;65855;42.030;13.078;2023-09-12T13:15:29;6.95;;;3.55;;
76894;SDS011;65855;42.030;13.078;2023-09-12T13:17:54;8.52;;;3.58;;
76894;SDS011;65855;42.030;13.078;2023-09-12T13:20:19;6.83;;;3.60;;
76894;SDS011;65855;42.030;13.078;2023-09-12T13:22:45;7.15;;;3.10;;
76894;SDS011;65855;42.030;13.078;2023-09-12T13:25:10;6.40;;;2.53;;
76894;SDS011;65855;42.030;13.078;2023-09-12T13:27:35;7.05;;;3.85;;
76894;SDS011;65855;42.030;13.078;2023-09-12T13:30:01;7.80;;;3.47;;
76894;SDS011;65855;42.030;13.078;2023-09-12T13:32:26;7.72;;;3.38;;
76894;SDS011;65855;42.030;13.078;2023-09-12T13:34:52;7.80;;;3.43;;
76894;SDS011;65855;42.030;13.078;2023-09-12T13:37:18;6.43;;;3.35;;
76894;SDS011;65855;42.030;13.078;2023-09-12T13:39:44;6.63;;;3.55;;
76894;SDS011;65855;42.030;13.078;2023-09-12T13:42:14;6.60;;;3.03;;
76894;SDS011;65855;42.030;13.078;2023-09-12T13:44:43;7.15;;;3.25;;
76894;SDS011;65855;42.030;13.078;2023-09-12T13:47:09;7.45;;;3.53;;
76894;SDS011;65855;42.030;13.078;2023-09-12T13:49:34;6.80;;;3.08;;
76894;SDS011;65855;42.030;13.078;2023-09-12T13:51:59;8.63;;;5.18;;
76894;SDS011;65855;42.030;13.078;2023-09-12T13:54:24;6.23;;;3.13;;
76894;SDS011;65855;42.030;13.078;2023-09-12T13:56:50;6.57;;;2.80;;
76894;SDS011;65855;42.030;13.078;2023-09-12T13:59:15;8.83;;;4.27;;
76894;SDS011;65855;42.030;13.078;2023-09-12T14:01:41;6.35;;;3.47;;
76894;SDS011;65855;42.030;13.078;2023-09-12T14:04:06;7.72;;;3.97;;
76894;SDS011;65855;42.030;13.078;2023-09-12T14:06:32;6.70;;;3.72;;
76894;SDS011;65855;42.030;13.078;2023-09-12T14:08:58;6.72;;;3.33;;
76894;SDS011;65855;42.030;13.078;2023-09-12T14:11:23;7.50;;;3.53;;
76894;SDS011;65855;42.030;13.078;2023-09-12T14:13:48;6.73;;;3.37;;
76894;SDS011;65855;42.030;13.078;2023-09-12T14:16:14;6.50;;;3.50;;
76894;SDS011;65855;42.030;13.078;2023-09-12T14:18:39;8.20;;;4.53;;
76894;SDS011;65855;42.030;13.078;2023-09-12T14:21:04;8.70;;;2.95;;
76894;SDS011;65855;42.030;13.078;2023-09-12T14:23:30;8.67;;;4.10;;
76894;SDS011;65855;42.030;13.078;2023-09-12T14:25:55;8.23;;;3.55;;
76894;SDS011;65855;42.030;13.078;2023-09-12T14:28:20;7.70;;;3.73;;
76894;SDS011;65855;42.030;13.078;2023-09-12T14:30:46;6.90;;;3.47;;
76894;SDS011;65855;42.030;13.078;2023-09-12T14:33:13;8.23;;;3.80;;
76894;SDS011;65855;42.030;13.078;2023-09-12T14:35:39;6.60;;;3.60;;
76894;SDS011;65855;42.030;13.078;2023-09-12T14:38:04;7.22;;;3.05;;
76894;SDS011;65855;42.030;13.078;2023-09-12T14:40:30;6.93;;;3.20;;